Time;durP1;ratioP1;P1;durP2;ratioP2;P2;SDS_P1;SDS_P2;PMS_P1;PMS_P2;Temp;Humidity;BMP_temperature;BMP_pressure;BME280_temperature;BME280_humidity;BME280_pressure;Samples;Min_cycle;Max_cycle;Signal;HPM_P1;HPM_P2
2023/04/02 00:02:33;;;;;;;1.70;1.57;;;;;;;10.26;68.63;94007.13;5019815;28;20477;-76
2023/04/02 00:05:55;;;;;;;4.37;1.90;;;;;;;10.27;68.31;94007.94;5019669;28;20444;-78
2023/04/02 00:08:26;;;;;;;2.70;1.43;;;;;;;10.21;67.72;94009.38;5052388;28;20535;-76
2023/04/02 00:10:55;;;;;;;1.40;1.13;;;;;;;10.18;67.77;94002.59;5054653;28;20582;-77
2023/04/02 00:13:32;;;;;;;3.23;1.60;;;;;;;10.13;67.11;94006.66;5054407;28;20456;-78
2023/04/02 00:16:02;;;;;;;2.80;1.63;;;;;;;10.19;66.85;94008.69;5054797;28;20443;-77
2023/04/02 00:18:29;;;;;;;2.10;1.73;;;;;;;10.27;66.25;94000.91;5035878;28;20444;-77
2023/04/02 00:21:06;;;;;;;2.20;1.97;;;;;;;10.31;67.37;94002.25;5054253;28;20459;-76
2023/04/02 00:23:36;;;;;;;1.57;1.40;;;;;;;10.22;65.87;93992.66;5053634;28;20499;-77
2023/04/02 00:26:06;;;;;;;2.17;1.30;;;;;;;10.22;65.99;93992.66;5053997;28;20448;-76
2023/04/02 00:28:33;;;;;;;2.60;1.27;;;;;;;10.21;65.42;93996.28;5054203;28;20861;-77
2023/04/02 00:31:00;;;;;;;1.50;1.40;;;;;;;10.31;65.16;93978.66;5054143;28;20995;-77
2023/04/02 00:33:30;;;;;;;1.50;1.20;;;;;;;10.33;65.61;93991.59;5035407;28;20456;-77
2023/04/02 00:35:57;;;;;;;4.70;1.77;;;;;;;10.32;65.13;93985.53;5054310;28;20452;-77
2023/04/02 00:38:27;;;;;;;3.97;1.70;;;;;;;10.30;65.43;93979.63;5053948;28;20796;-77
2023/04/02 00:40:58;;;;;;;1.87;1.67;;;;;;;10.23;66.06;93984.66;5053862;28;20456;-77
2023/04/02 00:43:27;;;;;;;1.37;1.27;;;;;;;10.14;65.32;93977.66;5053724;28;20456;-77
2023/04/02 00:45:56;;;;;;;1.70;1.13;;;;;;;10.13;65.74;93980.44;5034976;28;20791;-76
2023/04/02 00:48:37;;;;;;;4.23;2.10;;;;;;;10.15;65.69;93983.72;5053921;28;20457;-76
2023/04/02 00:51:14;;;;;;;5.30;3.73;;;;;;;10.10;66.45;93980.72;5054051;28;20544;-77
2023/04/02 00:53:44;;;;;;;2.43;2.00;;;;;;;9.99;66.68;93986.19;5054109;28;20937;-75
2023/04/02 00:56:19;;;;;;;3.43;3.13;;;;;;;9.82;71.18;93978.16;5053880;28;20495;-76
2023/04/02 00:58:51;;;;;;;4.90;3.10;;;;;;;9.58;72.84;93986.59;5034777;28;20529;-77
2023/04/02 01:01:20;;;;;;;8.77;3.77;;;;;;;9.22;75.32;93977.78;5053639;28;20502;-77
2023/04/02 01:04:00;;;;;;;6.17;4.70;;;;;;;8.96;77.52;93974.16;5053491;28;20451;-77
2023/04/02 01:06:30;;;;;;;5.33;4.63;;;;;;;9.08;77.40;93974.81;5053583;28;20476;-75
2023/04/02 01:09:24;;;;;;;6.25;4.75;;;;;;;8.98;78.41;93985.34;5053261;28;20490;-77
2023/04/02 01:12:21;;;;;;;6.33;5.13;;;;;;;8.82;79.32;93974.63;5053398;28;21064;-76
2023/04/02 01:14:56;;;;;;;5.20;4.70;;;;;;;8.69;80.31;93988.84;5053197;28;21001;-77
2023/04/02 01:17:35;;;;;;;6.93;4.50;;;;;;;8.64;80.87;93985.81;5053475;28;20875;-76
2023/04/02 01:20:30;;;;;;;5.33;4.50;;;;;;;8.69;80.59;93996.69;5053295;28;20612;-77
2023/04/02 01:23:04;;;;;;;5.97;4.43;;;;;;;8.65;81.04;93992.69;5011153;28;20480;-76
2023/04/02 01:25:40;;;;;;;5.13;3.97;;;;;;;8.40;82.17;93998.53;5010898;28;20452;-76
2023/04/02 01:28:18;;;;;;;4.00;3.67;;;;;;;7.98;84.63;93990.91;5011071;28;20448;-81
2023/04/02 01:30:51;;;;;;;3.97;3.67;;;;;;;7.82;85.92;93993.25;5010825;28;20523;-76
2023/04/02 01:33:19;;;;;;;6.13;4.60;;;;;;;7.80;86.77;93994.31;5010928;28;20488;-76
2023/04/02 01:35:52;;;;;;;6.60;4.73;;;;;;;7.85;86.58;93995.59;5010981;28;20436;-77
2023/04/02 01:38:26;;;;;;;7.10;3.70;;;;;;;7.94;85.68;93993.94;4978013;28;20442;-77
2023/04/02 01:41:00;;;;;;;5.50;4.37;;;;;;;8.04;85.58;93992.16;5010737;28;21090;-77
2023/04/02 01:43:35;;;;;;;7.40;4.00;;;;;;;8.16;84.92;93993.69;5010776;28;20451;-77
2023/04/02 01:46:24;;;;;;;3.80;3.40;;;;;;;7.90;84.94;93993.38;5010588;28;20452;-77
2023/04/02 01:49:21;;;;;;;11.70;3.90;;;;;;;7.90;85.56;93984.72;5010446;28;20528;-77
2023/04/02 01:51:52;;;;;;;5.13;4.40;;;;;;;7.98;85.19;93987.47;5010717;28;20461;-76
2023/04/02 01:54:20;;;;;;;4.37;3.97;;;;;;;7.96;85.43;93985.00;5010426;28;20455;-76
2023/04/02 01:56:48;;;;;;;4.40;4.00;;;;;;;7.92;85.80;93986.25;5010454;28;20451;-77
2023/04/02 01:59:18;;;;;;;4.60;3.60;;;;;;;7.82;86.31;93992.44;5017701;28;20446;-77
2023/04/02 02:01:52;;;;;;;5.33;3.90;;;;;;;7.59;86.46;93984.00;5052464;28;20447;-78
2023/04/02 02:04:19;;;;;;;7.47;4.63;;;;;;;7.50;87.72;93987.38;5053660;28;20443;-78
2023/04/02 02:06:47;;;;;;;7.67;4.57;;;;;;;7.03;91.30;93979.28;5054189;28;21005;-77
2023/04/02 02:09:21;;;;;;;4.20;3.80;;;;;;;7.13;91.62;93980.97;5053824;28;20494;-77
2023/04/02 02:11:49;;;;;;;8.03;3.90;;;;;;;7.36;91.09;93992.03;5053605;28;20449;-78
2023/04/02 02:14:19;;;;;;;5.60;3.80;;;;;;;7.27;91.47;93982.41;5035599;28;20449;-78
2023/04/02 02:16:48;;;;;;;5.23;4.83;;;;;;;7.21;92.23;93982.91;5019066;28;20516;-78
2023/04/02 02:19:26;;;;;;;5.93;4.35;;;;;;;7.34;92.12;93987.91;5053257;28;20906;-78
2023/04/02 02:21:56;;;;;;;4.17;3.83;;;;;;;7.26;91.70;93985.97;5053955;28;20767;-79
2023/04/02 02:24:25;;;;;;;4.93;3.53;;;;;;;7.43;91.63;93981.88;5034772;28;20450;-79
2023/04/02 02:27:04;;;;;;;3.57;3.27;;;;;;;7.62;89.83;93992.38;5053652;28;20445;-77
2023/04/02 02:29:35;;;;;;;3.83;3.53;;;;;;;7.78;89.19;93987.44;5052988;28;20480;-77
2023/04/02 02:32:06;;;;;;;4.27;3.87;;;;;;;7.88;88.29;93992.69;5053521;28;20933;-77
2023/04/02 02:34:38;;;;;;;4.10;3.70;;;;;;;7.96;87.82;93989.41;5053140;28;20458;-78
2023/04/02 02:37:08;;;;;;;4.47;3.50;;;;;;;8.07;87.29;93986.66;5051328;28;20450;-78
2023/04/02 02:39:41;;;;;;;4.67;3.97;;;;;;;8.15;86.67;93993.81;5051919;28;20445;-78
2023/04/02 02:42:14;;;;;;;4.17;3.77;;;;;;;7.78;87.27;93984.00;5052402;28;20509;-77
2023/04/02 02:44:46;;;;;;;4.23;3.83;;;;;;;7.96;86.46;93982.38;5051324;28;20520;-78
2023/04/02 02:47:18;;;;;;;6.47;4.27;;;;;;;8.00;86.54;93981.16;5051955;28;20454;-78
2023/04/02 02:49:49;;;;;;;6.33;3.70;;;;;;;8.03;86.75;93990.50;5052058;28;20455;-78
2023/04/02 02:52:19;;;;;;;7.70;3.80;;;;;;;8.00;86.29;93981.16;5051537;28;20490;-79
2023/04/02 02:54:49;;;;;;;10.93;4.83;;;;;;;8.13;86.37;93991.34;5051975;28;20443;-78
2023/04/02 02:57:22;;;;;;;5.30;4.90;;;;;;;8.15;86.41;93972.91;5051653;28;20896;-78
2023/04/02 02:59:49;;;;;;;16.87;8.20;;;;;;;8.18;86.10;93983.09;5016472;28;20443;-78
2023/04/02 03:02:19;;;;;;;10.00;6.80;;;;;;;8.11;85.65;93980.22;5051621;28;20829;-78
2023/04/02 03:04:48;;;;;;;7.80;6.07;;;;;;;7.75;87.23;93976.44;5032916;28;20932;-78
2023/04/02 03:07:18;;;;;;;6.07;4.87;;;;;;;7.77;87.18;93988.41;5051945;28;20474;-77
2023/04/02 03:09:52;;;;;;;5.67;4.57;;;;;;;7.73;87.51;93983.59;5033890;28;20442;-78
2023/04/02 03:12:40;;;;;;;5.07;4.63;;;;;;;7.58;88.15;93991.00;5071626;28;20464;-78
2023/04/02 03:15:16;;;;;;;9.73;5.40;;;;;;;7.64;88.08;93987.03;5071583;28;20498;-78
2023/04/02 03:17:49;;;;;;;7.00;5.10;;;;;;;7.67;87.58;94000.63;5071604;28;20459;-77
2023/04/02 03:20:22;;;;;;;4.60;4.20;;;;;;;7.74;88.07;94000.91;5053218;28;20460;-77
2023/04/02 03:22:56;;;;;;;12.00;5.20;;;;;;;7.62;88.50;94008.03;5071799;28;20786;-78
2023/04/02 03:25:33;;;;;;;4.47;3.93;;;;;;;7.55;88.10;94004.31;5071532;28;20437;-77
2023/04/02 03:28:04;;;;;;;4.63;4.17;;;;;;;7.61;87.37;94005.56;5071730;28;20533;-77
2023/04/02 03:30:39;;;;;;;4.60;4.10;;;;;;;7.54;87.51;93999.25;5071730;28;20496;-77
2023/04/02 03:33:14;;;;;;;4.10;3.47;;;;;;;7.59;87.84;94000.50;5071731;28;20434;-79
2023/04/02 03:35:45;;;;;;;4.40;4.00;;;;;;;7.56;87.98;93997.31;5071299;28;20432;-78
2023/04/02 03:38:18;;;;;;;6.80;4.37;;;;;;;7.53;87.42;94002.81;5072114;28;20448;-78
2023/04/02 03:41:01;;;;;;;5.97;5.17;;;;;;;7.63;87.23;94019.31;5071542;28;20437;-77
2023/04/02 03:43:35;;;;;;;6.00;5.17;;;;;;;7.68;87.42;94017.13;5052417;28;20444;-78
2023/04/02 03:46:13;;;;;;;6.47;5.37;;;;;;;7.66;87.44;94024.25;5071367;28;20553;-78
2023/04/02 03:48:45;;;;;;;6.70;6.10;;;;;;;7.51;87.31;94020.38;5071179;28;20447;-77
2023/04/02 03:51:17;;;;;;;6.50;5.00;;;;;;;7.59;88.00;94020.53;5052462;28;20484;-79
2023/04/02 03:53:45;;;;;;;3.53;3.20;;;;;;;7.63;87.23;94019.31;5071218;28;20501;-77
2023/04/02 03:56:23;;;;;;;6.90;5.17;;;;;;;7.67;87.17;94018.09;5071706;28;20527;-76
2023/04/02 03:58:56;;;;;;;5.87;4.47;;;;;;;7.73;86.63;94015.75;5074895;28;20464;-78
2023/04/02 04:01:28;;;;;;;5.23;4.30;;;;;;;7.81;85.74;94012.50;5039327;28;20449;-78
2023/04/02 04:04:03;;;;;;;9.50;5.30;;;;;;;7.83;85.05;94009.75;5074659;28;20960;-77
2023/04/02 04:06:32;;;;;;;8.60;4.63;;;;;;;7.84;84.55;94012.22;5075166;28;21032;-77
2023/04/02 04:09:06;;;;;;;5.97;4.97;;;;;;;7.85;84.82;94005.22;5075349;28;20460;-77
2023/04/02 04:11:38;;;;;;;17.07;5.17;;;;;;;7.83;84.96;94012.34;5074958;28;20481;-77
2023/04/02 04:14:13;;;;;;;6.67;4.87;;;;;;;7.82;84.57;94024.59;5039408;28;20446;-78
2023/04/02 04:16:43;;;;;;;13.83;7.07;;;;;;;7.69;84.80;94010.94;5074400;28;20449;-77
2023/04/02 04:19:18;;;;;;;8.10;6.47;;;;;;;7.69;85.41;94029.22;5074635;28;20537;-77
2023/04/02 04:21:46;;;;;;;21.57;11.10;;;;;;;7.52;85.29;94028.09;5074299;28;20461;-78
2023/04/02 04:24:20;;;;;;;13.47;9.63;;;;;;;7.16;87.37;94034.66;5074225;28;20505;-78
2023/04/02 04:26:53;;;;;;;14.60;8.93;;;;;;;7.02;89.01;94035.84;5074565;28;20449;-77
2023/04/02 04:29:33;;;;;;;8.00;5.83;;;;;;;6.86;89.74;94039.88;5074320;28;20459;-77
2023/04/02 04:32:17;;;;;;;8.63;7.30;;;;;;;6.95;90.72;94033.91;5073998;28;20541;-73
2023/04/02 04:34:52;;;;;;;9.17;6.63;;;;;;;7.02;91.28;94033.25;5074535;28;20440;-77
2023/04/02 04:37:24;;;;;;;11.83;7.13;;;;;;;7.13;90.82;94037.53;5074400;28;20440;-78
2023/04/02 04:39:56;;;;;;;35.53;17.47;;;;;;;7.21;90.13;94045.53;5074043;28;20523;-78
2023/04/02 04:42:25;;;;;;;18.33;10.90;;;;;;;7.06;90.37;94052.06;5073938;28;20943;-78
2023/04/02 04:44:57;;;;;;;15.50;8.40;;;;;;;7.10;89.81;94058.66;5074442;28;20793;-78
2023/04/02 04:47:29;;;;;;;10.57;7.63;;;;;;;7.37;89.52;94053.72;5074127;28;20460;-78
2023/04/02 04:50:04;;;;;;;11.23;7.80;;;;;;;7.64;88.06;94037.47;5073961;28;20484;-77
2023/04/02 04:52:36;;;;;;;13.97;7.30;;;;;;;7.99;86.68;94050.03;5072521;28;20481;-78
2023/04/02 04:55:19;;;;;;;7.57;6.70;;;;;;;8.29;85.16;94045.66;5073587;28;20460;-77
2023/04/02 04:57:48;;;;;;;9.70;7.07;;;;;;;8.55;83.01;94053.81;5025608;28;20437;-78
2023/04/02 05:00:22;;;;;;;11.10;7.60;;;;;;;8.68;81.60;94068.28;5073549;28;20442;-78
2023/04/02 05:02:54;;;;;;;15.93;11.13;;;;;;;8.49;80.90;94049.97;5073660;28;20445;-78
2023/04/02 05:05:28;;;;;;;14.40;9.47;;;;;;;8.49;81.01;94052.59;5073178;28;20798;-78
2023/04/02 05:08:00;;;;;;;9.70;8.50;;;;;;;8.50;81.17;94056.84;5072980;28;20489;-78
2023/04/02 05:10:34;;;;;;;12.70;8.23;;;;;;;8.49;81.86;94055.19;5073579;28;20443;-78
2023/04/02 05:13:06;;;;;;;9.20;7.00;;;;;;;8.84;82.91;94054.59;5054539;28;20812;-78
2023/04/02 05:15:38;;;;;;;11.57;8.53;;;;;;;9.26;80.69;94055.09;5073460;28;20452;-78
2023/04/02 05:18:17;;;;;;;13.43;7.30;;;;;;;9.88;78.41;94056.19;5073673;28;20447;-78
2023/04/02 05:20:50;;;;;;;11.50;7.40;;;;;;;10.63;75.33;94055.97;5073779;28;20486;-78
2023/04/02 05:23:22;;;;;;;12.93;7.33;;;;;;;11.23;70.51;94074.47;5074347;28;20565;-79
2023/04/02 05:25:55;;;;;;;15.57;8.37;;;;;;;11.44;71.17;94073.16;5055588;28;20443;-79
2023/04/02 05:28:30;;;;;;;8.57;7.43;;;;;;;11.71;68.69;94079.19;5074636;28;20445;-78
2023/04/02 05:31:02;;;;;;;7.73;6.57;;;;;;;11.66;68.58;94081.47;5074236;28;20920;-78
2023/04/02 05:33:30;;;;;;;15.43;6.30;;;;;;;11.84;68.06;94079.59;5074244;28;20474;-78
2023/04/02 05:36:02;;;;;;;11.27;7.93;;;;;;;11.66;66.01;94068.34;5073913;28;20437;-78
2023/04/02 05:38:32;;;;;;;14.50;7.33;;;;;;;11.82;66.43;94080.75;5074141;28;20486;-78
2023/04/02 05:41:02;;;;;;;9.30;6.40;;;;;;;12.03;68.45;94083.81;5073328;28;20452;-79
2023/04/02 05:43:32;;;;;;;11.93;7.00;;;;;;;12.51;66.51;94090.22;5074375;28;20445;-78
2023/04/02 05:46:06;;;;;;;9.30;5.77;;;;;;;13.07;64.68;94101.78;5074275;28;20494;-78
2023/04/02 05:48:37;;;;;;;9.10;6.63;;;;;;;13.27;61.91;94095.22;5074078;28;20449;-78
2023/04/02 05:51:09;;;;;;;9.67;7.53;;;;;;;13.73;62.55;94104.22;5073623;28;20487;-77
2023/04/02 05:53:40;;;;;;;6.50;5.50;;;;;;;14.26;64.25;94100.09;5073326;28;20455;-78
2023/04/02 05:56:15;;;;;;;5.50;4.70;;;;;;;14.76;57.20;94093.59;5074171;28;20834;-80
2023/04/02 05:58:47;;;;;;;8.20;4.53;;;;;;;14.75;55.41;94092.78;5074082;28;20498;-79
2023/04/02 06:01:21;;;;;;;6.90;3.97;;;;;;;15.11;55.68;94092.19;5073840;28;20458;-79
2023/04/02 06:03:57;;;;;;;4.77;4.27;;;;;;;15.29;54.18;94094.50;5074039;28;20435;-81
2023/04/02 06:06:43;;;;;;;5.83;4.50;;;;;;;15.39;54.88;94103.84;5074106;28;20486;-79
2023/04/02 06:09:15;;;;;;;5.93;4.30;;;;;;;15.71;54.28;94094.81;5074107;28;20451;-79
2023/04/02 06:11:46;;;;;;;6.43;3.90;;;;;;;16.00;51.50;94082.59;5072904;28;21123;-78
2023/04/02 06:14:15;;;;;;;8.03;4.80;;;;;;;16.01;51.44;94093.00;5071732;28;20441;-78
2023/04/02 06:16:44;;;;;;;4.70;4.03;;;;;;;16.01;52.14;94092.19;5054068;28;20443;-78
2023/04/02 06:19:21;;;;;;;4.27;3.87;;;;;;;15.93;51.22;94093.09;5065670;28;20972;-79
2023/04/02 06:21:52;;;;;;;5.43;4.07;;;;;;;16.04;52.05;94087.34;5073418;28;20515;-81
2023/04/02 06:24:24;;;;;;;7.63;5.37;;;;;;;16.34;52.25;94085.50;5074446;28;20496;-81
2023/04/02 06:26:56;;;;;;;5.67;4.17;;;;;;;16.46;50.51;94085.00;5073752;28;20436;-80
2023/04/02 06:29:32;;;;;;;4.53;4.10;;;;;;;16.69;49.53;94081.25;5073147;28;20486;-81
2023/04/02 06:32:01;;;;;;;5.03;4.20;;;;;;;16.77;50.10;94087.44;5073150;28;20866;-84
2023/04/02 06:34:30;;;;;;;4.60;4.20;;;;;;;16.43;50.24;94076.44;5054025;28;20456;-84
2023/04/02 06:37:02;;;;;;;4.43;3.70;;;;;;;16.70;50.37;94080.25;5065815;28;20487;-83
2023/04/02 06:39:29;;;;;;;3.73;3.43;;;;;;;16.75;49.67;94081.50;5053821;28;20808;-83
2023/04/02 06:42:01;;;;;;;9.00;4.00;;;;;;;16.93;50.53;94080.06;5035176;28;20449;-84
2023/04/02 06:44:32;;;;;;;7.87;3.70;;;;;;;16.99;50.56;94081.16;5054270;28;20432;-82
2023/04/02 06:47:03;;;;;;;4.23;3.30;;;;;;;16.46;51.14;94077.88;5052744;28;20505;-84
2023/04/02 06:49:36;;;;;;;5.53;3.30;;;;;;;16.09;51.61;94079.66;5071173;28;20868;-84
2023/04/02 06:52:08;;;;;;;6.80;2.70;;;;;;;16.35;51.53;94081.03;5052471;28;20486;-84
2023/04/02 06:54:35;;;;;;;5.83;3.17;;;;;;;16.61;51.80;94085.81;5059263;28;20825;-83
2023/04/02 06:57:04;;;;;;;6.90;3.10;;;;;;;16.97;50.85;94083.16;5071443;28;20455;-84
2023/04/02 06:59:31;;;;;;;5.60;3.60;;;;;;;17.26;49.30;94085.69;5071979;28;20445;-83
2023/04/02 07:02:02;;;;;;;3.60;3.23;;;;;;;17.60;50.23;94089.44;5071630;28;20891;-83
2023/04/02 07:04:29;;;;;;;3.07;2.77;;;;;;;17.51;49.30;94093.25;5071684;28;20842;-84
2023/04/02 07:06:56;;;;;;;2.70;2.50;;;;;;;16.81;49.95;94096.66;5071645;28;20487;-82
2023/04/02 07:09:25;;;;;;;2.60;2.40;;;;;;;16.95;50.06;94103.75;5071806;28;20502;-84
2023/04/02 07:11:52;;;;;;;2.90;2.60;;;;;;;16.70;50.34;94090.84;5071708;28;20512;-82
2023/04/02 07:14:19;;;;;;;3.10;2.70;;;;;;;16.76;51.09;94088.44;5052987;28;20440;-82
2023/04/02 07:16:46;;;;;;;2.87;2.60;;;;;;;16.96;49.72;94094.78;5072011;28;20451;-83
2023/04/02 07:19:19;;;;;;;2.63;2.40;;;;;;;16.96;49.04;94106.19;5071347;28;20447;-84
2023/04/02 07:21:46;;;;;;;4.17;3.20;;;;;;;17.10;50.34;94099.22;5071390;28;20512;-83
2023/04/02 07:24:13;;;;;;;6.00;2.83;;;;;;;16.83;50.41;94105.25;5036142;28;20448;-83
2023/04/02 07:26:41;;;;;;;5.03;3.30;;;;;;;16.73;51.61;94098.41;5052494;28;20435;-83
2023/04/02 07:29:08;;;;;;;3.23;2.93;;;;;;;16.57;51.23;94101.25;5073017;28;20546;-79
2023/04/02 07:31:38;;;;;;;3.20;2.90;;;;;;;16.93;51.91;94108.41;5074374;28;20476;-79
2023/04/02 07:34:06;;;;;;;4.70;3.27;;;;;;;17.11;51.35;94111.47;5077196;28;20925;-84
2023/04/02 07:36:34;;;;;;;4.03;3.07;;;;;;;17.28;50.95;94110.19;5076849;28;20459;-81
2023/04/02 07:39:01;;;;;;;3.77;3.37;;;;;;;17.19;49.76;94116.63;5076988;28;20995;-82
2023/04/02 07:41:28;;;;;;;3.97;3.67;;;;;;;17.30;49.31;94110.81;5076473;28;20453;-81
2023/04/02 07:43:56;;;;;;;3.87;3.57;;;;;;;17.43;48.04;94120.75;5076028;28;20864;-80
2023/04/02 07:46:24;;;;;;;5.80;5.20;;;;;;;17.43;48.31;94118.09;5075960;28;20444;-81
2023/04/02 07:48:51;;;;;;;5.37;4.07;;;;;;;17.81;49.00;94112.50;5077036;28;20457;-84
2023/04/02 07:51:20;;;;;;;4.63;4.00;;;;;;;17.87;48.50;94104.56;5057879;28;20447;-80
2023/04/02 07:53:48;;;;;;;5.30;3.90;;;;;;;17.73;47.58;94107.34;5076762;28;20441;-81
2023/04/02 07:56:17;;;;;;;8.03;4.20;;;;;;;17.76;47.84;94101.66;5077272;28;20452;-80
2023/04/02 07:58:45;;;;;;;5.83;4.23;;;;;;;17.37;47.36;94091.50;5076727;28;20501;-80
2023/04/02 08:01:19;;;;;;;5.07;4.60;;;;;;;17.44;48.18;94103.81;5076517;28;20444;-79
2023/04/02 08:03:46;;;;;;;9.50;4.60;;;;;;;17.26;48.11;94103.44;5076601;28;20440;-80
2023/04/02 08:06:13;;;;;;;7.07;4.57;;;;;;;17.10;48.15;94101.88;5076439;28;20817;-79
2023/04/02 08:08:40;;;;;;;12.27;4.37;;;;;;;16.89;48.30;94107.16;5076476;28;20444;-79
2023/04/02 08:11:08;;;;;;;6.37;4.13;;;;;;;16.56;48.79;94112.03;5076156;28;20944;-81
2023/04/02 08:13:35;;;;;;;6.57;4.23;;;;;;;16.33;49.11;94109.50;5076364;28;20482;-90
2023/04/02 08:16:02;;;;;;;6.40;3.70;;;;;;;15.97;48.92;94104.97;5076191;28;20984;-84
2023/04/02 08:18:31;;;;;;;5.43;3.63;;;;;;;15.89;50.60;94102.38;5076057;28;20917;-82
2023/04/02 08:20:58;;;;;;;4.17;3.13;;;;;;;15.99;50.20;94107.44;5076524;28;20455;-86
2023/04/02 08:23:25;;;;;;;6.93;3.60;;;;;;;16.21;53.47;94103.88;5076954;28;20516;-85
2023/04/02 08:25:53;;;;;;;3.67;3.00;;;;;;;16.02;49.86;94099.13;5076248;28;20433;-85
2023/04/02 08:28:21;;;;;;;3.70;1.97;;;;;;;16.00;48.75;94101.13;5057742;28;20517;-85
2023/04/02 08:30:49;;;;;;;3.70;2.63;;;;;;;15.95;49.69;94103.50;5075970;28;20452;-85
2023/04/02 08:33:16;;;;;;;2.50;2.30;;;;;;;15.97;49.19;94102.31;5076026;28;20496;-85
2023/04/02 08:35:45;;;;;;;5.73;2.03;;;;;;;15.63;47.98;94115.25;5076210;28;20439;-87
2023/04/02 08:38:14;;;;;;;3.03;2.00;;;;;;;15.47;49.36;94124.91;5076119;28;20444;-86
2023/04/02 08:40:44;;;;;;;3.37;1.33;;;;;;;15.36;47.98;94124.53;5076485;28;20448;-85
2023/04/02 08:43:27;;;;;;;4.33;1.57;;;;;;;15.46;48.07;94125.91;5057674;28;20429;-85
2023/04/02 08:46:04;;;;;;;3.30;2.33;;;;;;;15.31;47.97;94124.22;5076773;28;20449;-84
2023/04/02 08:48:33;;;;;;;1.90;1.70;;;;;;;15.25;48.30;94124.94;5074224;28;20789;-80
2023/04/02 08:51:06;;;;;;;3.70;2.50;;;;;;;15.30;49.46;94120.75;5075298;28;20455;-78
2023/04/02 08:53:35;;;;;;;3.20;1.80;;;;;;;15.33;48.65;94123.06;5075186;28;20484;-78
2023/04/02 08:56:08;;;;;;;4.67;1.40;;;;;;;15.30;49.20;94119.94;5075543;28;20463;-79
2023/04/02 08:58:41;;;;;;;2.30;2.10;;;;;;;15.21;49.56;94124.47;5075353;28;20467;-86
2023/04/02 09:01:18;;;;;;;3.60;2.37;;;;;;;15.26;48.87;94122.09;5057024;28;20453;-83
2023/04/02 09:03:47;;;;;;;7.80;3.27;;;;;;;15.16;48.63;94109.16;5064801;28;20966;-81
2023/04/02 09:06:19;;;;;;;2.27;2.07;;;;;;;15.16;47.77;94109.16;5074526;28;20460;-81
2023/04/02 09:08:48;;;;;;;6.23;2.50;;;;;;;15.41;49.34;94104.47;5071458;28;20471;-81
2023/04/02 09:11:22;;;;;;;15.43;2.60;;;;;;;15.43;48.29;94102.47;5075411;28;20522;-81
2023/04/02 09:13:55;;;;;;;7.80;2.77;;;;;;;15.53;47.44;94112.78;5055084;28;20477;-83
2023/04/02 09:16:33;;;;;;;10.33;1.93;;;;;;;15.81;46.91;94099.81;5055665;28;20481;-81
2023/04/02 09:19:10;;;;;;;4.43;2.07;;;;;;;16.27;46.69;94097.00;5054832;28;20963;-81
2023/04/02 09:21:43;;;;;;;4.90;2.00;;;;;;;16.56;45.78;94096.97;5070149;28;20452;-80
2023/04/02 09:24:16;;;;;;;4.83;3.70;;;;;;;16.77;46.38;94105.97;5074009;28;20443;-83
2023/04/02 09:26:43;;;;;;;3.00;2.10;;;;;;;17.02;45.04;94104.63;5073887;28;20446;-83
2023/04/02 09:29:28;;;;;;;5.53;2.53;;;;;;;17.14;43.97;94092.53;5074409;28;20434;-83
2023/04/02 09:32:02;;;;;;;7.10;4.13;;;;;;;17.17;44.97;94092.16;5074662;28;20427;-77
2023/04/02 09:34:31;;;;;;;4.13;1.97;;;;;;;17.12;43.84;94091.91;5074016;28;20442;-81
2023/04/02 09:37:08;;;;;;;2.57;2.17;;;;;;;17.27;44.53;94095.28;5074172;28;20443;-81
2023/04/02 09:39:35;;;;;;;1.80;1.37;;;;;;;17.38;41.62;94093.16;5074259;28;20442;-80
2023/04/02 09:42:06;;;;;;;3.00;1.70;;;;;;;17.58;41.22;94078.19;5073388;28;20882;-82
2023/04/02 09:44:33;;;;;;;4.73;1.40;;;;;;;17.46;40.25;94083.22;5073393;28;20489;-81
2023/04/02 09:47:03;;;;;;;3.60;1.57;;;;;;;17.60;40.26;94087.59;5073693;28;20463;-80
2023/04/02 09:49:32;;;;;;;2.40;1.87;;;;;;;17.79;40.79;94074.72;5074214;28;20946;-81
2023/04/02 09:52:21;;;;;;;1.90;1.50;;;;;;;17.48;41.34;94070.59;5073887;28;20946;-82
2023/04/02 09:55:16;;;;;;;2.13;1.40;;;;;;;17.17;41.54;94078.88;5073160;28;20441;-82
2023/04/02 09:57:43;;;;;;;2.37;1.80;;;;;;;17.04;42.12;94068.16;5074031;28;20981;-84
2023/04/02 10:00:17;;;;;;;2.87;2.00;;;;;;;16.66;44.18;94062.25;5074249;28;20429;-80
2023/04/02 10:02:45;;;;;;;2.47;1.47;;;;;;;16.75;43.13;94076.19;5074137;28;20790;-80
2023/04/02 10:05:19;;;;;;;2.43;1.70;;;;;;;16.64;42.35;94070.38;5074297;28;20488;-80
2023/04/02 10:07:49;;;;;;;2.10;1.90;;;;;;;16.68;42.77;94071.66;5073957;28;20485;-82
2023/04/02 10:10:21;;;;;;;1.80;1.70;;;;;;;16.62;44.95;94069.72;5074065;28;20484;-82
2023/04/02 10:12:52;;;;;;;1.73;1.60;;;;;;;16.75;44.73;94068.25;5038639;28;20488;-81
2023/04/02 10:15:25;;;;;;;2.20;1.70;;;;;;;16.73;44.29;94069.25;5073901;28;20858;-81
2023/04/02 10:18:02;;;;;;;1.30;1.20;;;;;;;16.68;41.55;94058.41;5073479;28;20804;-82
2023/04/02 10:20:31;;;;;;;1.80;1.70;;;;;;;16.70;42.57;94058.22;5074005;28;20477;-82
2023/04/02 10:23:16;;;;;;;2.30;1.70;;;;;;;16.44;42.51;94066.66;5074193;28;20434;-81
2023/04/02 10:25:49;;;;;;;7.23;2.00;;;;;;;16.51;43.10;94056.16;5073855;28;20454;-81
2023/04/02 10:28:29;;;;;;;2.00;1.50;;;;;;;16.55;40.90;94058.25;5073757;28;20450;-82
2023/04/02 10:31:03;;;;;;;6.03;2.17;;;;;;;17.48;68.46;94075.06;5039099;28;20459;-86
2023/04/02 10:33:35;;;;;;;3.90;1.50;;;;;;;18.15;44.55;94053.28;5074070;28;20476;-88
2023/04/02 10:36:09;;;;;;;1.60;1.50;;;;;;;18.36;47.50;94062.97;5074118;28;20446;-85
2023/04/02 10:38:44;;;;;;;2.63;2.37;;;;;;;18.74;42.31;94058.84;5074452;28;20445;-86
2023/04/02 10:41:27;;;;;;;1.20;1.10;;;;;;;18.69;37.83;94063.94;5073664;28;20429;-82
2023/04/02 10:44:32;;;;;;;1.80;1.40;;;;;;;18.28;38.21;94066.63;5074454;28;20440;-83
2023/04/02 10:47:17;;;;;;;2.10;1.60;;;;;;;17.97;39.36;94068.91;5031349;28;20452;-82
2023/04/02 10:49:52;;;;;;;1.43;1.33;;;;;;;17.88;39.23;94060.28;5031237;28;20434;-81
2023/04/02 10:52:21;;;;;;;1.83;1.50;;;;;;;17.93;38.70;94057.88;5031164;28;20529;-84
2023/04/02 10:54:52;;;;;;;2.00;1.80;;;;;;;17.81;41.09;94056.75;4998655;28;20451;-84
2023/04/02 10:57:30;;;;;;;1.60;1.50;;;;;;;17.43;41.61;94053.59;4997440;28;20788;-84
2023/04/02 11:00:05;;;;;;;3.50;1.90;;;;;;;17.33;42.86;94053.91;5028328;28;20465;-81
2023/04/02 11:02:38;;;;;;;1.90;1.70;;;;;;;17.19;42.76;94054.84;5029345;28;20499;-83
2023/04/02 11:05:17;;;;;;;1.60;1.50;;;;;;;16.93;43.72;94052.75;5029464;28;20496;-83
2023/04/02 11:07:53;;;;;;;2.57;1.47;;;;;;;16.85;43.96;94039.63;5033260;28;20531;-84
2023/04/02 11:10:22;;;;;;;1.97;1.73;;;;;;;16.64;45.08;94046.53;5033479;28;20445;-83
2023/04/02 11:12:57;;;;;;;3.60;1.40;;;;;;;16.52;44.65;94034.78;5033330;28;20484;-83
2023/04/02 11:15:26;;;;;;;2.30;1.87;;;;;;;16.43;45.20;94042.00;5033789;28;20862;-83
2023/04/02 11:17:53;;;;;;;2.40;1.73;;;;;;;16.59;46.39;94040.16;5033665;28;20479;-82
2023/04/02 11:20:43;;;;;;;1.87;1.77;;;;;;;16.74;45.45;94043.59;5033411;28;21114;-83
2023/04/02 11:23:12;;;;;;;1.80;1.63;;;;;;;16.67;45.50;94043.53;5051178;28;20454;-83
2023/04/02 11:25:41;;;;;;;1.57;1.47;;;;;;;16.44;44.98;94048.13;5075622;28;20950;-83
2023/04/02 11:28:26;;;;;;;1.70;1.60;;;;;;;16.40;45.95;94046.84;5075817;28;20504;-82
2023/04/02 11:30:53;;;;;;;1.87;1.60;;;;;;;16.36;45.13;94045.59;5056112;28;20518;-83
2023/04/02 11:33:40;;;;;;;1.77;1.63;;;;;;;16.29;53.33;94034.94;5055108;28;20509;-82
2023/04/02 11:36:40;;;;;;;1.80;1.10;;;;;;;16.30;44.84;94027.81;5043458;28;20943;-82
2023/04/02 11:39:10;;;;;;;1.70;1.47;;;;;;;16.21;46.64;94037.69;5075374;28;20541;-83
2023/04/02 11:42:22;;;;;;;2.80;1.40;;;;;;;16.01;46.25;94033.97;5075361;28;20806;-83
2023/04/02 11:44:49;;;;;;;3.20;2.00;;;;;;;15.96;46.97;94036.34;5011765;28;20463;-82
2023/04/02 11:47:18;;;;;;;2.00;1.80;;;;;;;16.08;47.86;94026.91;5008454;28;20974;-82
2023/04/02 11:50:27;;;;;;;1.90;1.70;;;;;;;16.19;47.01;94038.84;5013042;28;20441;-82
2023/04/02 11:52:55;;;;;;;3.10;1.80;;;;;;;16.25;47.08;94038.97;5012667;28;20522;-81
2023/04/02 11:55:30;;;;;;;3.73;2.93;;;;;;;16.28;46.10;94035.94;5013080;28;20595;-81
2023/04/02 11:58:23;;;;;;;3.50;2.60;;;;;;;16.22;46.68;94033.22;5012875;28;20452;-81
2023/04/02 12:01:13;;;;;;;4.07;2.33;;;;;;;16.19;46.01;94038.84;5013460;28;20803;-83
2023/04/02 12:04:29;;;;;;;4.07;3.10;;;;;;;16.21;46.21;94028.94;5012915;28;20962;-82
2023/04/02 12:07:16;;;;;;;1.43;1.33;;;;;;;16.05;45.84;94033.41;4993560;28;20592;-83